Terminal Aerodrome Forecast
Issued by NWS Caribou, ME

Home | Current Version | Previous Version | Text Only | Print | Product List | Glossary On
Versions: 1 2 3 4 5 6 7 8 9 10 11 12 13 14 15 16 17 18 19 20 21
000
FTUS41 KCAR 241120
TAFCAR
TAF
KCAR 241120Z 2412/2512 12005KT P6SM OVC018
     FM241500 12005KT P6SM OVC010
     FM241700 13006KT 5SM -FZRA BR OVC007
     FM241900 13008KT 4SM -RA BR OVC005 WS020/17040KT=

USA.gov is the U.S. government's official web portal to all federal, state and local government web resources and services.